Flight Track Log - Related Links

Times and Time Zones

All times are in EDT time to prevent confusion due to time zone crossing. See the EJA846 flight status page for this flight to view local times or setup timezone preferences in your user account.

Time Position Orientation Groundspeed Altitude Reporting Facility
EDT Latitude Longitude Course Direction KTS MPH feet Rate Location/Type
Sun 01:06:27 PM 27.1486 -80.1294 336° Northwest 208 239 3,500  Level Miami Center
Sun 01:07:27 PM 27.0917 -80.1533 200° South 179 206 5,000 750 Climbing Miami Center
Sun 01:08:27 PM 27.1131 -80.2239 289° West 167 192 5,000 750 Level Miami Center
Sun 01:09:27 PM 27.1847 -80.2797 325° Northwest 222 255 6,500 2,000 Climbing Miami Center
Sun 01:10:27 PM 27.2525 -80.3331 325° Northwest 282 325 9,000 2,650 Climbing Miami Center
Sun 01:11:00 PM 27.3737 -80.6202 336° Northwest  Level FlightAware Approximate
Sun 01:11:27 PM 27.3242 -80.3867 326° Northwest 303 349 11,800  Level Miami Center
Sun 01:12:27 PM 27.3897 -80.4378 325° Northwest 308 354 14,300 2,750 Climbing Miami Center
Sun 01:13:27 PM 27.4758 -80.5039 326° Northwest 319 367 17,300 2,450 Climbing Miami Center
Sun 01:14:27 PM 27.5414 -80.5550 325° Northwest 329 379 19,200 2,100 Climbing Miami Center
Sun 01:15:27 PM 27.6211 -80.6186 325° Northwest 329 379 21,500 2,150 Climbing Miami Center
Sun 01:16:27 PM 27.6986 -80.6819 324° Northwest 334 384 23,500 1,550 Climbing Miami Center
Sun 01:17:27 PM 27.7694 -80.7667 313° West 352 405 24,600 1,050 Climbing Miami Center
Sun 01:18:27 PM 27.8403 -80.8558 312° West 371 427 25,600 1,000 Climbing Miami Center
Sun 01:19:27 PM 27.9189 -80.9456 315° West 390 449 26,600 1,050 Climbing Miami Center
Sun 01:20:27 PM 27.9936 -81.0400 312° West 390 449 27,700 1,100 Climbing Miami Center
Sun 01:21:27 PM 28.0761 -81.1442 312° West 397 457 28,800 994 Climbing Miami Center
Sun 01:23:04 PM 28.1964 -81.2958 312° West 402 463 30,300 955 Climbing Jacksonville Center
Sun 01:24:04 PM 28.2706 -81.3867 313° West 402 463 31,300 950 Climbing Jacksonville Center
Sun 01:25:04 PM 28.3319 -81.4636 312° West 390 449 32,200 950 Climbing Jacksonville Center
Sun 01:26:04 PM 28.4058 -81.5569 312° West 384 442 33,200 1,050 Climbing Jacksonville Center
Sun 01:27:04 PM 28.4842 -81.6619 310° West 384 442 34,300 1,050 Climbing Jacksonville Center
Sun 01:28:04 PM 28.5581 -81.7511 313° West 384 442 35,300 1,000 Climbing Jacksonville Center
Sun 01:29:04 PM 28.6278 -81.8447 310° West 384 442 36,300 900 Climbing Jacksonville Center
Sun 01:30:04 PM 28.6869 -81.9411 305° West 384 442 37,100 600 Climbing Jacksonville Center
Sun 01:31:04 PM 28.7378 -82.0472 299° West 379 436 37,500 450 Climbing Jacksonville Center
Sun 01:32:04 PM 28.7886 -82.1533 299° West 379 436 38,000 250 Climbing Jacksonville Center
Sun 01:33:04 PM 28.8392 -82.2622 298° West 384 442 38,000  Level Jacksonville Center
Sun 01:34:04 PM 28.8856 -82.3639 298° West 384 442 38,000  Level Jacksonville Center
Sun 01:35:04 PM 28.9361 -82.4678 299° West 377 434 38,000  Level Jacksonville Center
Sun 01:36:04 PM 28.9844 -82.5722 298° West 377 434 38,000  Level Jacksonville Center
Sun 01:37:04 PM 29.0347 -82.6789 298° West 377 434 38,000 450 Level Jacksonville Center
Sun 01:38:04 PM 29.0850 -82.7856 298° West 382 440 38,900 1,400 Climbing Jacksonville Center
Sun 01:39:04 PM 29.1286 -82.8783 298° West 366 421 40,800 1,400 Climbing Jacksonville Center
Sun 01:40:04 PM 29.1725 -82.9733 298° West 347 399 41,700 750 Climbing Jacksonville Center
Sun 01:41:04 PM 29.2164 -83.0711 297° West 342 394 42,300 550 Climbing Jacksonville Center
Sun 01:42:04 PM 29.2619 -83.1686 298° West 347 399 42,800 350 Climbing Jacksonville Center
Sun 01:43:04 PM 29.3078 -83.2664 298° West 347 399 43,000 100 Climbing Jacksonville Center
Sun 01:44:04 PM 29.3553 -83.3714 297° West 352 405 43,000  Level Jacksonville Center
Sun 01:45:04 PM 29.4050 -83.4742 299° West 363 418 43,000  Level Jacksonville Center
Sun 01:46:04 PM 29.4525 -83.5842 296° West 369 425 43,000  Level Jacksonville Center
Sun 01:47:04 PM 29.5042 -83.6919 299° West 374 430 43,000  Level Jacksonville Center
Sun 01:48:04 PM 29.5556 -83.7997 299° West 379 436 43,000  Level Jacksonville Center
Sun 01:49:04 PM 29.6047 -83.9100 297° West 384 442 43,000  Level Jacksonville Center
Sun 01:50:04 PM 29.6500 -84.0086 298° West 384 442 43,000  Level Jacksonville Center
Sun 01:51:04 PM 29.7011 -84.1192 298° West 384 442 43,000  Level Jacksonville Center
Sun 01:52:04 PM 29.7522 -84.2322 298° West 389 448 43,000  Level Jacksonville Center
Sun 01:53:04 PM 29.8053 -84.3456 298° West 389 448 43,000  Level Jacksonville Center
Sun 01:54:04 PM 29.8561 -84.4589 297° West 389 448 43,000  Level Jacksonville Center
Sun 01:55:04 PM 29.9028 -84.5697 296° West 389 448 43,000  Level Jacksonville Center
Sun 01:56:04 PM 29.9533 -84.6808 298° West 389 448 43,000  Level Jacksonville Center
Sun 01:57:04 PM 30.0081 -84.7947 299° West 389 448 43,000  Level Jacksonville Center
Sun 01:58:04 PM 30.0564 -84.9083 296° West 389 448 43,000  Level Jacksonville Center
Sun 01:59:04 PM 30.0983 -85.0244 293° West 389 448 43,000  Level Jacksonville Center
Sun 02:00:04 PM 30.1233 -85.1453 283° West 389 448 43,000  Level Jacksonville Center
Sun 02:01:04 PM 30.1483 -85.2681 283° West 389 448 43,000  Level Jacksonville Center
Sun 02:02:04 PM 30.1711 -85.3889 282° West 389 448 43,000  Level Jacksonville Center
Sun 02:03:04 PM 30.1914 -85.5167 280° West 400 460 43,000  Level Jacksonville Center
Sun 02:04:04 PM 30.2161 -85.6328 284° West 394 453 43,000  Level Jacksonville Center
Sun 02:05:04 PM 30.2467 -85.7708 284° West 394 453 43,000  Level Jacksonville Center
Sun 02:06:04 PM 30.2561 -85.8936 275° West 394 453 43,000  Level Jacksonville Center
Sun 02:07:04 PM 30.2617 -86.0142 273° West 388 447 43,000  Level Jacksonville Center
Sun 02:08:04 PM 30.2692 -86.1369 274° West 388 447 43,000  Level Jacksonville Center
Sun 02:09:04 PM 30.2764 -86.2597 274° West 388 447 43,000  Level Jacksonville Center
Sun 02:10:04 PM 30.2792 -86.3850 272° West 388 447 43,000  Level Jacksonville Center
Sun 02:11:04 PM 30.2903 -86.5081 276° West 388 447 43,000  Level Jacksonville Center
Sun 02:12:04 PM 30.2972 -86.6286 274° West 388 447 43,000  Level Jacksonville Center
Sun 02:13:04 PM 30.3042 -86.7517 274° West 388 447 43,000  Level Jacksonville Center
Sun 02:14:04 PM 30.3108 -86.8744 274° West 388 447 43,000  Level Jacksonville Center
Sun 02:15:04 PM 30.3136 -86.9828 272° West 388 447 43,000  Level Jacksonville Center
Sun 02:16:04 PM 30.2972 -87.1025 261° West 382 440 43,000  Level Jacksonville Center
Sun 02:17:04 PM 30.2806 -87.2244 261° West 387 445 43,000  Level Jacksonville Center
Sun 02:18:04 PM 30.2617 -87.3486 260° West 387 445 43,000  Level Jacksonville Center
Sun 02:19:04 PM 30.2447 -87.4703 261° West 387 445 43,000  Level Jacksonville Center
Sun 02:20:04 PM 30.2278 -87.5922 261° West 387 445 43,000  Level Jacksonville Center
Sun 02:21:04 PM 30.2086 -87.7136 260° West 387 445 43,000  Level Jacksonville Center
Sun 02:23:20 PM 30.1697 -88.0025 261° West 383 441 43,000  Level Houston Center
Sun 02:24:22 PM 30.1517 -88.1233 260° West 382 440 43,000  Level Houston Center
Sun 02:25:24 PM 30.1342 -88.2428 260° West 378 435 43,000  Level Houston Center
Sun 02:26:27 PM 30.1175 -88.3636 261° West 380 437 43,000  Level Houston Center
Sun 02:27:29 PM 30.0986 -88.4825 260° West 377 434 43,000  Level Houston Center
Sun 02:28:31 PM 30.0808 -88.6017 260° West 377 434 43,000  Level Houston Center
Sun 02:29:33 PM 30.0606 -88.7406 260° West 376 433 43,000  Level Houston Center
Sun 02:30:35 PM 30.0431 -88.8594 260° West 376 433 43,000  Level Houston Center
Sun 02:31:37 PM 30.0247 -88.9778 260° West 375 432 43,000  Level Houston Center
Sun 02:32:39 PM 30.0069 -89.0964 260° West 375 432 43,000  Level Houston Center
Sun 02:33:41 PM 29.9878 -89.2144 259° West 373 429 43,000  Level Houston Center
Sun 02:34:43 PM 29.9656 -89.3564 260° West 373 429 43,000  Level Houston Center
Sun 02:35:46 PM 29.9467 -89.4756 260° West 376 433 43,000  Level Houston Center
Sun 02:36:48 PM 29.9292 -89.5944 260° West 374 430 43,000  Level Houston Center
Sun 02:37:50 PM 29.9097 -89.7131 259° West 375 432 43,000  Level Houston Center
Sun 02:38:52 PM 29.8908 -89.8322 260° West 376 433 43,000  Level Houston Center
Sun 02:39:55 PM 29.8719 -89.9514 260° West 375 432 43,000  Level Houston Center
Sun 02:40:56 PM 29.8536 -90.0697 260° West 376 433 43,000  Level Houston Center
Sun 02:41:58 PM 29.8292 -90.2119 259° West 377 434 43,000  Level Houston Center
Sun 02:43:00 PM 29.8103 -90.3292 260° West 374 430 43,000  Level Houston Center
Sun 02:44:02 PM 29.7917 -90.4458 260° West 370 426 43,000  Level Houston Center
Sun 02:45:05 PM 29.7725 -90.5611 259° West 367 422 43,000  Level Houston Center
Sun 02:46:07 PM 29.7536 -90.6756 259° West 365 420 43,000 -435 Level Houston Center
Sun 02:47:09 PM 29.7661 -90.7922 277° West 369 425 42,100 -1,161 Descending Houston Center
Sun 02:48:11 PM 29.7878 -90.9236 281° West 346 398 40,600 -1,161 Descending Houston Center
Sun 02:49:13 PM 29.8072 -91.0317 282° West 345 397 39,700 -919 Descending Houston Center
Sun 02:50:15 PM 29.8256 -91.1450 281° West 359 413 38,700 -823 Descending Houston Center
Sun 02:51:17 PM 29.8439 -91.2514 281° West 342 394 38,000 -339 Descending Houston Center
Sun 02:52:19 PM 29.8619 -91.3592 281° West 342 394 38,000  Level Houston Center
Sun 02:53:21 PM 29.8794 -91.4653 281° West 339 390 38,000  Level Houston Center
Sun 02:54:24 PM 29.8997 -91.5922 280° West 337 388 38,000  Level Houston Center
Sun 02:55:26 PM 29.9172 -91.6983 281° West 337 388 38,000  Level Houston Center
Sun 02:56:28 PM 29.9344 -91.8025 281° West 339 390 38,000 -48 Level Houston Center
Sun 02:57:30 PM 29.9508 -91.9089 280° West 337 388 37,900 -532 Descending Houston Center
Sun 02:58:32 PM 29.9694 -92.0133 282° West 332 382 36,900 -968 Descending Houston Center
Sun 02:59:34 PM 29.9850 -92.1181 280° West 330 380 35,900 -1,548 Descending Houston Center
Sun 03:00:36 PM 30.0067 -92.2461 281° West 338 389 33,700 -2,032 Descending Houston Center
Sun 03:01:38 PM 30.0236 -92.3561 280° West 348 400 31,700 -1,935 Descending Houston Center
Sun 03:02:40 PM 30.0461 -92.4681 283° West 355 409 29,700 -1,776 Descending Houston Center
Sun 03:03:43 PM 30.0608 -92.5836 278° West 362 417 28,000 -816 Descending Houston Center
Sun 03:04:45 PM 30.0775 -92.6953 280° West 353 406 28,000 -774 Level Houston Center
Sun 03:05:47 PM 30.0975 -92.8311 280° West 358 412 26,400 -1,548 Descending Houston Center
Sun 03:06:49 PM 30.1175 -92.9511 281° West 375 432 24,800 -1,548 Descending Houston Center
Sun 03:07:51 PM 30.1356 -93.0708 280° West 379 436 23,200 -1,984 Descending Houston Center
Sun 03:08:53 PM 30.1436 -93.1867 275° West 364 419 20,700 -2,468 Descending Houston Center
Sun 03:09:55 PM 30.1481 -93.3017 273° West 357 411 18,100 -2,516 Descending Houston Center
Sun 03:10:57 PM 30.1511 -93.4153 272° West 353 406 15,500 -2,722 Descending Houston Center
Sun 03:11:43 PM 30.1553 -93.5114 273° West 344 396 13,200 -2,516 Descending Houston Center
Sun 03:11:59 PM 30.1561 -93.5275 273° West 347 399 12,900 -2,557 Descending Houston Center
Sun 03:12:44 PM 30.1592 -93.6292 272° West 346 398 10,600 -2,762 Descending Houston Center
Sun 03:13:02 PM 30.1597 -93.6611 271° West 342 394 10,000 -590 Descending Houston Center
Sun 03:13:45 PM 30.1622 -93.7378 272° West 326 375 10,000  Level Houston Center
Sun 03:14:04 PM 30.1642 -93.7650 275° West 326 375 10,000  Level Houston Center
Sun 03:14:41 PM 30.1656 -93.8317 271° West 328 377 10,000  Level Houston Center
Sun 03:15:06 PM 30.1667 -93.8728 272° West 333 383 10,000  Level Houston Center
Sun 03:15:48 PM 30.1694 -93.9522 272° West 334 384 10,000  Level Houston Center
Sun 03:16:08 PM 30.1700 -93.9786 271° West 332 382 10,000  Level Houston Center
Sun 03:16:50 PM 30.1744 -94.0628 274° West 338 389 10,000  Level Houston Center
Sun 03:17:10 PM 30.1744 -94.0872 270° West 339 390 10,000  Level Houston Center
Sun 03:17:51 PM 30.1778 -94.1786 272° West 342 394 10,000  Level Houston Center
Sun 03:18:12 PM 30.1764 -94.1972 265° West 341 392 10,000  Level Houston Center
Sun 03:18:53 PM 30.1800 -94.2847 273° West 339 390 10,000  Level Houston Center
Sun 03:19:14 PM 30.1800 -94.3064 270° West 340 391 10,000  Level Houston Center
Sun 03:20:00 PM 30.1839 -94.4100 273° West 338 389 10,000  Level Houston Center
Sun 03:20:16 PM 30.1833 -94.4356 269° West 337 388 10,000 -295 Level Houston Center
Sun 03:21:01 PM 30.1883 -94.5206 274° West 339 390 9,700 -286 Descending Houston Center
Sun 03:21:19 PM 30.1931 -94.5394 286° West 332 382 9,700 -1,452 Level Houston Center
Sun 03:22:03 PM 30.2036 -94.6106 280° West 268 308 8,200 -1,742 Descending Houston Center
Sun 03:22:21 PM 30.2069 -94.6256 284° West 282 325 7,900 -2,066 Descending Houston Center
Sun 03:23:04 PM 30.2228 -94.7025 283° West 283 326 6,100 -1,839 Descending Houston Center
Sun 03:23:23 PM 30.2244 -94.7142 279° West 281 323 6,000 -1,452 Descending Houston Center
Sun 03:24:06 PM 30.2414 -94.7847 286° West 252 290 4,600 -1,452 Descending Houston Center
Sun 03:24:25 PM 30.2436 -94.7942 285° West 263 303 4,500 -643 Descending Houston Center
Sun 03:25:02 PM 30.2608 -94.8572 288° West 261 300 4,000 -387 Descending Houston Center
Sun 03:25:27 PM 30.2692 -94.8894 287° West 256 295 4,100 -98 Climbing Houston Center
Sun 03:26:03 PM 30.2808 -94.9369 286° West 266 306 3,900  Descending Houston Center
Sun 03:26:29 PM 30.2892 -94.9714 286° West 263 303 4,100 98 Climbing Houston Center
Sun 03:27:04 PM 30.3017 -95.0239 285° West 264 304 4,000  Descending Houston Center
Sun 03:27:31 PM 30.3086 -95.0531 285° West 264 304 4,100 -387 Climbing Houston Center
Sun 03:28:06 PM 30.3053 -95.1083 266° West 265 305 3,600 -774 Descending Houston Center
Sun 03:28:33 PM 30.3014 -95.1342 260° West 263 303 3,300 -689 Descending Houston Center
Sun 03:29:07 PM 30.2875 -95.1881 253° West 262 302 2,900 -290 Descending Houston Center
Sun 03:29:35 PM 30.2833 -95.2139 259° West 261 300 3,000 98 Climbing Houston Center
Sun 03:30:08 PM 30.2703 -95.2722 255° West 258 297 3,000 95 Level Houston Center
Sun 03:30:38 PM 30.2617 -95.3114 256° West 261 300 3,100  Climbing Houston Center
Sun 03:31:09 PM 30.2506 -95.3569 254° West 262 302 3,000 -387 Descending Houston Center
Sun 03:31:40 PM 30.2408 -95.3897 251° West 260 299 2,700 -1,082 Descending Houston Center
Sun 03:32:10 PM 30.2236 -95.4278 242° Southwest 228 262 1,900 -774 Descending Houston Center
Sun 03:32:42 PM 30.2139 -95.4581 250° West 251 289 1,900 98 Level Houston Center
Sun 03:33:11 PM 30.2017 -95.4886 245° Southwest 208 239 2,000  Climbing Houston Center
Sun 03:33:44 PM 30.1925 -95.5161 249° West 227 261 1,900  Descending Houston Center
Sun 03:34:13 PM 30.1797 -95.5467 244° Southwest 182 209 2,000 97 Climbing Houston Center
Sun 03:34:46 PM 30.1678 -95.5614 227° Southwest 204 235 2,000 -393 Level Houston Center
Sun 03:35:14 PM 30.1414 -95.5658 188° South 144 166 1,600 -677 Descending Houston Center
Sun 03:35:48 PM 30.1292 -95.5636 171° South 166 191 1,300 -689 Descending Houston Center
Sun 03:36:15 PM 30.1094 -95.5600 171° South 119 137 900 -581 Descending Houston Center
Sun 03:36:50 PM 30.0947 -95.5581 173° South 138 159 700 -343 Descending Houston Center
Sun 03:38:00 PM 30.0618 -95.5528 218° Southwest  Level Estimated

Login

Don't have an account? Register now (free) for customized features, flight alerts, and more!